createdAt,value
2023-04-13T00:01:17.564Z,6.13
2023-04-13T00:03:46.181Z,6.00
2023-04-13T00:06:13.726Z,6.43
2023-04-13T00:08:43.169Z,6.33
2023-04-13T00:11:12.055Z,6.50
2023-04-13T00:13:43.207Z,6.00
2023-04-13T00:16:11.305Z,6.60
2023-04-13T00:18:38.809Z,6.80
2023-04-13T00:21:07.166Z,6.17
2023-04-13T00:23:36.467Z,6.27
2023-04-13T00:26:04.069Z,6.37
2023-04-13T00:28:31.542Z,6.20
2023-04-13T00:30:59.001Z,5.63
2023-04-13T00:33:26.857Z,5.83
2023-04-13T00:35:56.035Z,5.73
2023-04-13T00:38:24.368Z,6.50
2023-04-13T00:40:51.822Z,5.67
2023-04-13T00:43:19.610Z,5.90
2023-04-13T00:45:47.945Z,5.90
2023-04-13T00:48:16.188Z,5.70
2023-04-13T00:50:44.059Z,5.60
2023-04-13T00:53:13.931Z,5.73
2023-04-13T00:55:43.112Z,5.90
2023-04-13T00:58:11.156Z,6.07
2023-04-13T01:00:40.998Z,5.70
2023-04-13T01:03:10.695Z,5.90
2023-04-13T01:05:59.634Z,5.77
2023-04-13T01:08:37.903Z,5.30
2023-04-13T01:11:21.474Z,5.13
2023-04-13T01:14:10.849Z,6.07
2023-04-13T01:16:50.376Z,5.37
2023-04-13T01:19:44.606Z,5.63
2023-04-13T01:22:14.769Z,5.23
2023-04-13T01:25:14.850Z,5.10
2023-04-13T01:27:48.049Z,5.30
2023-04-13T01:30:18.437Z,5.40
2023-04-13T01:32:46.068Z,5.20
2023-04-13T01:35:13.827Z,5.07
2023-04-13T01:37:44.220Z,5.10
2023-04-13T01:40:13.012Z,4.73
2023-04-13T01:42:41.768Z,4.87
2023-04-13T01:45:19.327Z,5.07
2023-04-13T01:48:06.134Z,4.97
2023-04-13T01:50:41.130Z,4.90
2023-04-13T01:53:13.323Z,4.70
2023-04-13T01:55:42.277Z,4.97
2023-04-13T01:58:13.458Z,5.17
2023-04-13T02:00:43.984Z,5.43
2023-04-13T02:03:12.650Z,5.73
2023-04-13T02:05:43.038Z,5.13
2023-04-13T02:08:14.196Z,5.33
2023-04-13T02:10:43.126Z,5.20
2023-04-13T02:13:13.653Z,5.30
2023-04-13T02:15:43.099Z,5.10
2023-04-13T02:18:12.036Z,5.27
2023-04-13T02:20:44.585Z,4.90
2023-04-13T02:23:16.067Z,4.70
2023-04-13T02:25:45.946Z,4.83
2023-04-13T02:28:18.276Z,5.30
2023-04-13T02:30:45.945Z,4.70
2023-04-13T02:33:13.328Z,4.93
2023-04-13T02:35:40.976Z,5.00
2023-04-13T02:38:10.817Z,5.00
2023-04-13T02:40:39.048Z,5.03
2023-04-13T02:43:06.801Z,5.37
2023-04-13T02:45:34.399Z,5.40
2023-04-13T02:48:11.304Z,4.97
2023-04-13T02:50:38.858Z,4.27
2023-04-13T02:53:08.004Z,5.27
2023-04-13T02:55:35.374Z,4.47
2023-04-13T02:58:04.766Z,4.73
2023-04-13T03:00:33.277Z,4.63
2023-04-13T03:03:03.768Z,4.53
2023-04-13T03:05:34.234Z,4.37
2023-04-13T03:08:02.587Z,4.63
2023-04-13T03:10:34.304Z,4.30
2023-04-13T03:13:02.434Z,4.30
2023-04-13T03:15:30.897Z,4.30
2023-04-13T03:18:00.368Z,4.07
2023-04-13T03:20:29.451Z,4.20
2023-04-13T03:22:58.860Z,4.30
2023-04-13T03:25:26.336Z,4.20
2023-04-13T03:27:53.769Z,4.40
2023-04-13T03:30:21.746Z,4.87
2023-04-13T03:32:49.390Z,4.23
2023-04-13T03:35:17.028Z,4.20
2023-04-13T03:37:45.058Z,3.87
2023-04-13T03:40:12.930Z,4.03
2023-04-13T03:42:40.328Z,4.00
2023-04-13T03:45:08.310Z,4.30
2023-04-13T03:47:35.884Z,3.83
2023-04-13T03:50:04.046Z,4.10
2023-04-13T03:52:32.564Z,4.33
2023-04-13T03:55:00.230Z,4.10
2023-04-13T03:57:27.680Z,3.90
2023-04-13T03:59:55.576Z,3.70
2023-04-13T04:02:23.178Z,4.00
2023-04-13T04:04:51.365Z,4.43
2023-04-13T04:07:23.926Z,4.03
2023-04-13T04:09:51.621Z,4.33
2023-04-13T04:12:19.227Z,4.17
2023-04-13T04:14:46.817Z,4.47
2023-04-13T04:17:14.260Z,4.40
2023-04-13T04:19:42.062Z,4.60
2023-04-13T04:22:10.098Z,4.13
2023-04-13T04:24:37.687Z,4.43
2023-04-13T04:27:05.933Z,4.10
2023-04-13T04:29:36.370Z,4.47
2023-04-13T04:32:05.869Z,4.00
2023-04-13T04:34:33.369Z,3.57
2023-04-13T04:37:08.112Z,4.40
2023-04-13T04:39:44.631Z,4.30
2023-04-13T04:42:12.177Z,4.50
2023-04-13T04:44:40.255Z,4.63
2023-04-13T04:47:07.776Z,4.03
2023-04-13T04:49:36.684Z,4.60
2023-04-13T04:52:04.342Z,3.90
2023-04-13T04:54:31.885Z,4.03
2023-04-13T04:57:02.444Z,4.17
2023-04-13T04:59:29.835Z,4.30
2023-04-13T05:01:57.653Z,3.87
2023-04-13T05:04:25.196Z,4.53
2023-04-13T05:06:52.519Z,4.30
2023-04-13T05:09:20.882Z,4.10
2023-04-13T05:11:48.484Z,4.10
2023-04-13T05:14:16.282Z,4.07
2023-04-13T05:16:43.628Z,4.20
2023-04-13T05:19:12.858Z,4.50
2023-04-13T05:21:40.233Z,4.20
2023-04-13T05:24:08.028Z,4.13
2023-04-13T05:26:35.545Z,3.77
2023-04-13T05:29:04.830Z,4.50
2023-04-13T05:31:32.333Z,4.47
2023-04-13T05:33:59.920Z,4.50
2023-04-13T05:36:29.310Z,4.17
2023-04-13T05:38:59.720Z,4.60
2023-04-13T05:41:27.781Z,4.23
2023-04-13T05:43:58.649Z,4.00
2023-04-13T05:46:26.644Z,4.63
2023-04-13T05:48:54.109Z,4.60
2023-04-13T05:51:21.782Z,4.50
2023-04-13T05:53:49.196Z,4.33
2023-04-13T05:56:16.951Z,4.70
2023-04-13T05:58:44.740Z,4.43
2023-04-13T06:01:13.118Z,4.50
2023-04-13T06:03:43.783Z,4.50
2023-04-13T06:06:12.123Z,4.53
2023-04-13T06:08:40.483Z,4.37
2023-04-13T06:11:08.971Z,4.67
2023-04-13T06:13:36.675Z,4.03
2023-04-13T06:16:04.386Z,4.27
2023-04-13T06:18:32.508Z,4.00
2023-04-13T06:21:00.347Z,4.30
2023-04-13T06:23:29.261Z,3.97
2023-04-13T06:25:59.405Z,4.23
2023-04-13T06:28:29.815Z,3.90
2023-04-13T06:30:57.353Z,4.23
2023-04-13T06:33:26.843Z,4.20
2023-04-13T06:35:54.539Z,4.90
2023-04-13T06:38:22.104Z,4.50
2023-04-13T06:40:49.625Z,4.67
2023-04-13T06:43:28.738Z,4.60
2023-04-13T06:46:02.564Z,4.70
2023-04-13T06:48:30.138Z,4.23
2023-04-13T06:50:59.369Z,4.50
2023-04-13T06:53:29.722Z,4.40
2023-04-13T06:55:57.416Z,4.33
2023-04-13T06:58:25.694Z,4.47
2023-04-13T07:00:53.308Z,4.33
2023-04-13T07:03:21.528Z,3.97
2023-04-13T07:05:49.192Z,4.40
2023-04-13T07:08:19.710Z,4.60
2023-04-13T07:10:53.062Z,4.60
2023-04-13T07:13:20.892Z,4.13
2023-04-13T07:15:48.385Z,4.17
2023-04-13T07:18:15.915Z,4.20
2023-04-13T07:20:43.432Z,4.33
2023-04-13T07:23:11.061Z,4.30
2023-04-13T07:25:38.814Z,4.03
2023-04-13T07:28:06.408Z,4.10
2023-04-13T07:30:33.770Z,4.23
2023-04-13T07:33:01.298Z,4.37
2023-04-13T07:35:29.302Z,3.57
2023-04-13T07:37:56.706Z,3.77
2023-04-13T07:40:24.210Z,4.20
2023-04-13T07:42:52.188Z,3.90
2023-04-13T07:45:21.000Z,3.70
2023-04-13T07:47:49.282Z,3.83
2023-04-13T07:50:18.204Z,3.80
2023-04-13T07:52:49.511Z,3.97
2023-04-13T07:55:17.230Z,3.87
2023-04-13T07:57:44.678Z,3.90
2023-04-13T08:00:14.454Z,4.10
2023-04-13T08:02:43.032Z,3.60
2023-04-13T08:05:11.596Z,3.57
2023-04-13T08:07:39.186Z,4.07
2023-04-13T08:10:07.317Z,3.97
2023-04-13T08:12:34.680Z,3.70
2023-04-13T08:15:02.159Z,3.90
2023-04-13T08:17:30.043Z,3.30
2023-04-13T08:19:57.772Z,4.10
2023-04-13T08:22:25.670Z,4.33
2023-04-13T08:24:53.483Z,3.67
2023-04-13T08:27:20.815Z,4.23
2023-04-13T08:29:48.560Z,4.33
2023-04-13T08:32:16.609Z,3.63
2023-04-13T08:34:44.212Z,3.90
2023-04-13T08:37:15.571Z,4.00
2023-04-13T08:39:43.116Z,3.80
2023-04-13T08:42:10.529Z,4.27
2023-04-13T08:44:43.471Z,3.97
2023-04-13T08:47:11.913Z,3.50
2023-04-13T08:49:41.138Z,4.03
2023-04-13T08:52:11.360Z,3.27
2023-04-13T08:54:38.772Z,3.80
2023-04-13T08:57:07.756Z,3.87
2023-04-13T08:59:39.206Z,4.37
2023-04-13T09:02:07.830Z,4.50
2023-04-13T09:04:39.628Z,3.83
2023-04-13T09:07:09.317Z,4.60
2023-04-13T09:09:39.144Z,3.90
2023-04-13T09:12:07.949Z,4.20
2023-04-13T09:14:38.663Z,4.27
2023-04-13T09:17:07.417Z,3.93
2023-04-13T09:19:38.349Z,4.57
2023-04-13T09:22:15.597Z,4.17
2023-04-13T09:24:44.412Z,4.20
2023-04-13T09:27:23.850Z,4.30
2023-04-13T09:29:53.381Z,4.20
2023-04-13T09:32:29.641Z,4.20
2023-04-13T09:35:06.138Z,4.40
2023-04-13T09:37:34.473Z,4.00
2023-04-13T09:40:11.884Z,4.50
2023-04-13T09:42:56.328Z,4.30
2023-04-13T09:45:36.506Z,3.93
2023-04-13T09:48:19.345Z,4.73
2023-04-13T09:51:02.459Z,4.10
2023-04-13T09:53:51.879Z,4.33
2023-04-13T09:56:20.462Z,4.57
2023-04-13T09:58:50.618Z,4.60
2023-04-13T10:01:18.823Z,4.53
2023-04-13T10:03:48.316Z,4.70
2023-04-13T10:06:18.744Z,4.77
2023-04-13T10:08:48.164Z,4.63
2023-04-13T10:11:21.190Z,4.13
2023-04-13T10:14:00.555Z,4.57
2023-04-13T10:16:47.946Z,4.40
2023-04-13T10:19:23.853Z,4.60
2023-04-13T10:22:00.887Z,4.03
2023-04-13T10:24:37.854Z,4.53
2023-04-13T10:27:23.921Z,4.20
2023-04-13T10:29:55.820Z,5.10
2023-04-13T10:32:28.080Z,4.33
2023-04-13T10:35:00.104Z,5.13
2023-04-13T10:37:29.701Z,4.73
2023-04-13T10:40:14.600Z,4.47
2023-04-13T10:45:29.495Z,5.03
2023-04-13T10:47:58.883Z,4.63
2023-04-13T10:50:29.896Z,5.10
2023-04-13T10:53:07.840Z,5.23
2023-04-13T10:55:41.099Z,5.57
2023-04-13T10:58:19.290Z,5.00
2023-04-13T11:00:48.497Z,4.43
2023-04-13T11:03:20.493Z,5.43
2023-04-13T11:05:57.816Z,5.07
2023-04-13T11:08:28.279Z,4.73
2023-04-13T11:10:58.532Z,5.07
2023-04-13T11:13:30.126Z,4.93
2023-04-13T11:16:05.488Z,5.37
2023-04-13T11:18:33.150Z,5.13
2023-04-13T11:21:04.659Z,5.13
2023-04-13T11:23:39.489Z,5.10
2023-04-13T11:26:09.730Z,4.97
2023-04-13T11:28:51.455Z,5.37
2023-04-13T11:31:24.095Z,5.50
2023-04-13T11:33:53.759Z,5.03
2023-04-13T11:36:24.172Z,4.97
2023-04-13T11:38:53.726Z,5.10
2023-04-13T11:41:21.107Z,6.20
2023-04-13T11:43:51.009Z,6.27
2023-04-13T11:46:25.987Z,5.97
2023-04-13T11:48:53.763Z,6.07
2023-04-13T11:51:22.538Z,5.70
2023-04-13T11:53:52.378Z,6.07
2023-04-13T11:56:25.350Z,5.57
2023-04-13T11:58:56.621Z,5.90
2023-04-13T12:01:36.654Z,6.07
2023-04-13T12:04:15.442Z,5.70
2023-04-13T12:06:57.470Z,5.90
2023-04-13T12:09:56.409Z,6.10
2023-04-13T12:12:50.659Z,5.77
2023-04-13T12:15:43.401Z,6.47
2023-04-13T12:18:18.240Z,6.40
2023-04-13T12:20:54.498Z,6.10
2023-04-13T12:23:25.613Z,6.77
2023-04-13T12:26:33.169Z,5.80
2023-04-13T12:28:59.463Z,6.13
2023-04-13T12:31:42.836Z,6.03
2023-04-13T12:34:10.261Z,6.23
2023-04-13T12:36:37.766Z,5.93
2023-04-13T12:39:12.184Z,5.80
2023-04-13T12:41:39.634Z,6.20
2023-04-13T12:44:07.116Z,6.20
2023-04-13T12:46:36.049Z,5.67
2023-04-13T12:49:07.571Z,5.57
2023-04-13T12:51:37.425Z,5.90
2023-04-13T12:54:08.963Z,5.93
2023-04-13T12:56:39.985Z,5.87
2023-04-13T12:59:08.917Z,6.47
2023-04-13T13:01:38.104Z,6.27
2023-04-13T13:04:06.376Z,5.70
2023-04-13T13:06:34.446Z,6.07
2023-04-13T13:09:03.390Z,5.27
2023-04-13T13:11:30.824Z,6.00
2023-04-13T13:13:59.693Z,5.90
2023-04-13T13:16:27.754Z,5.33
2023-04-13T13:18:56.801Z,5.33
2023-04-13T13:21:29.986Z,4.93
2023-04-13T13:23:58.605Z,5.10
2023-04-13T13:26:30.594Z,5.10
2023-04-13T13:29:18.830Z,4.70
2023-04-13T13:31:50.855Z,5.13
2023-04-13T13:34:20.078Z,4.37
2023-04-13T13:36:49.842Z,5.17
2023-04-13T13:39:22.058Z,5.53
2023-04-13T13:41:50.492Z,5.47
2023-04-13T13:44:22.758Z,5.40
2023-04-13T13:46:50.810Z,5.20
2023-04-13T13:49:19.976Z,4.93
2023-04-13T13:51:51.699Z,5.27
2023-04-13T13:54:22.219Z,5.20
2023-04-13T13:56:50.083Z,4.93
2023-04-13T13:59:17.786Z,4.90
2023-04-13T14:01:46.390Z,5.47
2023-04-13T14:04:13.719Z,5.97
2023-04-13T14:06:40.878Z,5.70
2023-04-13T14:09:08.226Z,5.00
2023-04-13T14:11:37.051Z,5.53
2023-04-13T14:14:18.253Z,5.23
2023-04-13T14:16:50.121Z,5.20
2023-04-13T14:19:22.804Z,5.30
2023-04-13T14:21:57.856Z,4.80
2023-04-13T14:24:27.571Z,5.27
2023-04-13T14:27:00.460Z,5.20
2023-04-13T14:29:28.239Z,4.93
2023-04-13T14:32:00.947Z,5.13
2023-04-13T14:34:29.329Z,5.00
2023-04-13T14:36:58.234Z,4.27
2023-04-13T14:39:27.526Z,5.13
2023-04-13T14:41:56.547Z,4.70
2023-04-13T14:44:26.162Z,4.73
2023-04-13T14:46:54.981Z,4.57
2023-04-13T14:49:24.492Z,4.53
2023-04-13T14:51:52.268Z,4.53
2023-04-13T14:54:19.562Z,4.50
2023-04-13T14:56:48.135Z,4.20
2023-04-13T14:59:16.399Z,4.67
2023-04-13T15:01:43.945Z,3.80
2023-04-13T15:04:11.974Z,3.80
2023-04-13T15:06:40.576Z,3.47
2023-04-13T15:09:09.744Z,3.50
2023-04-13T15:11:38.945Z,4.17
2023-04-13T15:14:08.140Z,3.77
2023-04-13T15:16:35.970Z,3.80
2023-04-13T15:19:03.341Z,4.00
2023-04-13T15:21:32.493Z,4.27
2023-04-13T15:23:59.807Z,3.30
2023-04-13T15:26:27.282Z,3.90
2023-04-13T15:28:56.585Z,3.70
2023-04-13T15:31:24.341Z,3.30
2023-04-13T15:33:52.674Z,3.87
2023-04-13T15:36:20.290Z,3.40
2023-04-13T15:38:51.487Z,3.63
2023-04-13T15:41:26.212Z,3.87
2023-04-13T15:43:57.671Z,3.30
2023-04-13T15:46:29.190Z,3.40
2023-04-13T15:48:56.986Z,3.27
2023-04-13T15:51:26.215Z,3.30
2023-04-13T15:53:55.090Z,3.37
2023-04-13T15:56:25.463Z,3.37
2023-04-13T15:58:53.629Z,3.67
2023-04-13T16:01:21.559Z,3.30
2023-04-13T16:03:50.942Z,3.27
2023-04-13T16:06:22.176Z,3.10
2023-04-13T16:08:49.798Z,3.33
2023-04-13T16:11:20.998Z,3.70
2023-04-13T16:13:50.349Z,3.03
2023-04-13T16:17:04.021Z,3.17
2023-04-13T16:19:32.944Z,3.00
2023-04-13T16:22:00.207Z,3.20
2023-04-13T16:24:27.596Z,3.00
2023-04-13T16:26:54.880Z,3.20
2023-04-13T16:29:24.858Z,3.60
2023-04-13T16:31:52.998Z,3.10
2023-04-13T16:34:26.743Z,3.40
2023-04-13T16:36:54.982Z,3.30
2023-04-13T16:39:23.129Z,3.27
2023-04-13T16:41:50.448Z,3.40
2023-04-13T16:45:04.636Z,3.63
2023-04-13T16:48:00.334Z,3.70
2023-04-13T16:50:35.744Z,3.23
2023-04-13T16:53:03.085Z,3.47
2023-04-13T16:55:31.457Z,3.10
2023-04-13T16:58:00.516Z,3.20
2023-04-13T17:00:31.884Z,3.07
2023-04-13T17:03:00.262Z,3.30
2023-04-13T17:05:28.546Z,3.13
2023-04-13T17:07:57.700Z,3.10
2023-04-13T17:10:26.735Z,3.50
2023-04-13T17:12:55.736Z,3.73
2023-04-13T17:15:34.982Z,3.30
2023-04-13T17:18:08.239Z,3.73
2023-04-13T17:20:37.025Z,3.60
2023-04-13T17:23:06.085Z,3.43
2023-04-13T17:25:38.255Z,3.90
2023-04-13T17:28:07.650Z,3.30
2023-04-13T17:30:41.819Z,3.37
2023-04-13T17:33:09.829Z,3.70
2023-04-13T17:35:37.640Z,3.80
2023-04-13T17:38:05.833Z,4.10
2023-04-13T17:40:33.507Z,3.73
2023-04-13T17:43:00.976Z,4.27
2023-04-13T17:45:29.754Z,3.73
2023-04-13T17:47:57.212Z,4.20
2023-04-13T17:50:27.407Z,3.03
2023-04-13T17:52:55.170Z,4.03
2023-04-13T17:55:26.641Z,4.10
2023-04-13T17:57:55.489Z,3.67
2023-04-13T18:00:22.878Z,3.47
2023-04-13T18:02:52.191Z,3.60
2023-04-13T18:05:19.719Z,3.57
2023-04-13T18:07:51.652Z,3.90
2023-04-13T18:10:19.050Z,3.93
2023-04-13T18:13:05.826Z,4.53
2023-04-13T18:15:36.389Z,4.37
2023-04-13T18:18:04.185Z,4.10
2023-04-13T18:20:31.275Z,4.17
2023-04-13T18:23:01.010Z,3.43
2023-04-13T18:25:30.678Z,3.80
2023-04-13T18:27:59.056Z,3.83
2023-04-13T18:30:26.197Z,3.83
2023-04-13T18:32:57.005Z,4.30
2023-04-13T18:35:28.795Z,4.00
2023-04-13T18:38:06.343Z,4.07
2023-04-13T18:40:35.396Z,4.27
2023-04-13T18:43:05.166Z,3.50
2023-04-13T18:45:45.970Z,4.13
2023-04-13T18:48:16.895Z,3.93
2023-04-13T18:50:51.687Z,3.93
2023-04-13T18:53:23.250Z,3.97
2023-04-13T18:55:53.356Z,4.00
2023-04-13T18:58:24.641Z,4.50
2023-04-13T19:00:58.618Z,4.47
2023-04-13T19:03:26.441Z,3.87
2023-04-13T19:05:53.575Z,4.40
2023-04-13T19:08:20.855Z,4.70
2023-04-13T19:10:48.459Z,4.87
2023-04-13T19:13:18.054Z,4.50
2023-04-13T19:15:45.719Z,4.87
2023-04-13T19:18:14.939Z,3.87
2023-04-13T19:20:42.864Z,4.43
2023-04-13T19:23:10.672Z,4.40
2023-04-13T19:25:39.006Z,4.63
2023-04-13T19:28:06.347Z,4.73
2023-04-13T19:30:37.145Z,4.50
2023-04-13T19:33:05.092Z,4.30
2023-04-13T19:35:34.932Z,4.53
2023-04-13T19:38:03.041Z,4.17
2023-04-13T19:40:30.250Z,4.80
2023-04-13T19:43:00.332Z,4.57
2023-04-13T19:45:28.247Z,4.70
2023-04-13T19:47:56.013Z,4.10
2023-04-13T19:50:25.736Z,4.87
2023-04-13T19:52:54.669Z,5.17
2023-04-13T19:55:22.297Z,4.47
2023-04-13T19:57:49.906Z,4.70
2023-04-13T20:00:21.546Z,4.03
2023-04-13T20:02:52.619Z,4.53
2023-04-13T20:05:21.760Z,4.37
2023-04-13T20:07:50.110Z,4.47
2023-04-13T20:10:20.099Z,4.67
2023-04-13T20:12:48.006Z,4.83
2023-04-13T20:15:16.884Z,4.53
2023-04-13T20:17:48.972Z,4.57
2023-04-13T20:20:18.022Z,4.50
2023-04-13T20:22:45.600Z,3.50
2023-04-13T20:25:12.809Z,4.00
2023-04-13T20:27:42.233Z,4.30
2023-04-13T20:30:10.489Z,4.70
2023-04-13T20:32:38.763Z,4.07
2023-04-13T20:35:06.486Z,4.17
2023-04-13T20:37:34.444Z,4.33
2023-04-13T20:40:04.563Z,4.03
2023-04-13T20:42:31.850Z,4.20
2023-04-13T20:45:00.886Z,4.17
2023-04-13T20:47:31.588Z,4.60
2023-04-13T20:50:01.136Z,4.43
2023-04-13T20:52:31.779Z,4.70
2023-04-13T20:55:00.001Z,4.47
2023-04-13T20:57:27.800Z,4.47
2023-04-13T20:59:58.684Z,4.50
2023-04-13T21:02:26.896Z,4.40
2023-04-13T21:04:57.247Z,4.57
2023-04-13T21:07:26.161Z,3.90
2023-04-13T21:09:53.443Z,4.27
2023-04-13T21:12:20.885Z,4.37
2023-04-13T21:14:48.053Z,4.40
2023-04-13T21:17:15.292Z,4.97
2023-04-13T21:19:42.522Z,3.93
2023-04-13T21:22:09.700Z,4.40
2023-04-13T21:24:36.780Z,4.60
2023-04-13T21:27:04.754Z,4.30
2023-04-13T21:29:31.852Z,4.40
2023-04-13T21:31:59.446Z,4.00
2023-04-13T21:34:30.197Z,4.13
2023-04-13T21:36:57.515Z,4.20
2023-04-13T21:39:25.684Z,4.10
2023-04-13T21:41:52.769Z,4.33
2023-04-13T21:44:29.442Z,4.27
2023-04-13T21:46:58.736Z,4.50
2023-04-13T21:49:26.045Z,4.10
2023-04-13T21:51:53.908Z,3.33
2023-04-13T21:54:21.332Z,4.50
2023-04-13T21:56:49.755Z,4.23
2023-04-13T21:59:16.854Z,4.10
2023-04-13T22:01:45.944Z,4.37
2023-04-13T22:04:13.536Z,4.40
2023-04-13T22:06:40.786Z,3.90
2023-04-13T22:09:08.014Z,4.20
2023-04-13T22:11:36.438Z,4.13
2023-04-13T22:14:03.931Z,4.17
2023-04-13T22:16:32.383Z,4.63
2023-04-13T22:18:59.744Z,4.30
2023-04-13T22:21:28.604Z,4.30
2023-04-13T22:23:56.765Z,4.40
2023-04-13T22:26:25.266Z,4.50
2023-04-13T22:28:52.542Z,4.60
2023-04-13T22:31:19.718Z,3.80
2023-04-13T22:33:47.561Z,4.33
2023-04-13T22:36:20.225Z,4.50
2023-04-13T22:38:48.113Z,4.83
2023-04-13T22:41:15.819Z,3.93
2023-04-13T22:43:43.043Z,4.10
2023-04-13T22:46:10.493Z,4.33
2023-04-13T22:48:37.749Z,4.47
2023-04-13T22:51:04.927Z,4.40
2023-04-13T22:53:32.238Z,4.27
2023-04-13T22:56:00.836Z,4.80
2023-04-13T22:58:28.734Z,4.23
2023-04-13T23:01:00.186Z,5.07
2023-04-13T23:03:27.669Z,4.20
2023-04-13T23:05:57.784Z,4.50
2023-04-13T23:08:25.042Z,4.30
2023-04-13T23:10:52.284Z,4.50
2023-04-13T23:13:19.379Z,4.10
2023-04-13T23:15:46.469Z,4.13
2023-04-13T23:18:13.716Z,4.03
2023-04-13T23:20:40.899Z,4.00
2023-04-13T23:23:08.057Z,4.40
2023-04-13T23:25:35.167Z,4.43
2023-04-13T23:28:02.607Z,4.20
2023-04-13T23:30:29.739Z,4.03
2023-04-13T23:32:56.970Z,4.40
2023-04-13T23:35:24.302Z,4.33
2023-04-13T23:37:51.433Z,4.03
2023-04-13T23:40:18.545Z,3.87
2023-04-13T23:42:45.658Z,4.40
2023-04-13T23:45:12.786Z,4.60
2023-04-13T23:47:39.910Z,4.20
2023-04-13T23:50:07.753Z,4.43
2023-04-13T23:52:34.828Z,4.30
2023-04-13T23:55:01.868Z,4.10
2023-04-13T23:57:34.157Z,3.93
